Abercrombie, North Dakota
Current Conditions -  °F | °C
As of 2:15 AM on Monday 24 Nov 2014 (Local Time) from KBWP Reporting Station
Overcast Overcast  
Wind Chill: -18°   Ceiling: 2000
Heat Index: -8°   Visibility: 2mi
Dew Point: -11°   Wind: 22mph
Humidity: 79%   Direction: 330°NNW
Pressure: 29.56"   Gusts: 30mph
Location:  46.45°N, 96.73°W
Report Text: KBWP 240815Z AUTO 33019G26KT 2SM SCT008 OVC020 M08/M11 A2956 RMK AO1
Loading
Personal Weather Stations






























Interactive Weather Map New forecast layout! Learn more

10-Day Weather Forecast

Advertisements
Track Severe Weather on mobile